Time;durP1;ratioP1;P1;durP2;ratioP2;P2;SDS_P1;SDS_P2;PMS_P1;PMS_P2;Temp;Humidity;BMP_temperature;BMP_pressure;BME280_temperature;BME280_humidity;BME280_pressure;Samples;Min_cycle;Max_cycle;Signal;HPM_P1;HPM_P2
2023/06/10 00:00:37;;;;;;;0.30;0.30;;;17.80;99.90;;;;;;5030527;28;20393;-60
2023/06/10 00:03:03;;;;;;;0.73;0.55;;;17.80;99.90;;;;;;5030692;28;20032;-60
2023/06/10 00:05:31;;;;;;;0.50;0.30;;;17.80;99.90;;;;;;5030529;28;20029;-60
2023/06/10 00:07:57;;;;;;;0.43;0.40;;;17.80;99.90;;;;;;5030527;28;20457;-59
2023/06/10 00:10:24;;;;;;;0.57;0.57;;;17.70;99.90;;;;;;5030538;28;20029;-59
2023/06/10 00:12:51;;;;;;;0.40;0.40;;;17.70;99.90;;;;;;5030570;28;20017;-59
2023/06/10 00:15:17;;;;;;;0.80;0.77;;;17.70;99.90;;;;;;5030589;28;20033;-60
2023/06/10 00:17:43;;;;;;;0.30;0.30;;;17.80;99.90;;;;;;5030285;28;20037;-59
2023/06/10 00:20:11;;;;;;;0.40;0.40;;;17.70;99.90;;;;;;5030500;28;20037;-60
2023/06/10 00:22:39;;;;;;;0.40;0.40;;;17.70;99.90;;;;;;5030575;28;20036;-59
2023/06/10 00:25:09;;;;;;;0.30;0.20;;;17.70;99.90;;;;;;5016646;28;20025;-59
2023/06/10 00:27:35;;;;;;;0.60;0.50;;;17.70;99.90;;;;;;5030373;28;20040;-58
2023/06/10 00:30:06;;;;;;;0.45;0.43;;;17.70;99.90;;;;;;5030358;28;20018;-60
2023/06/10 00:32:32;;;;;;;0.90;0.60;;;17.70;99.90;;;;;;5032055;28;20057;-60
2023/06/10 00:34:58;;;;;;;0.68;0.68;;;17.70;99.90;;;;;;5034282;28;20109;-58
2023/06/10 00:37:23;;;;;;;1.08;1.05;;;17.60;99.90;;;;;;5034859;28;20124;-57
2023/06/10 00:39:49;;;;;;;0.30;0.30;;;17.60;99.90;;;;;;5034239;28;20032;-59
2023/06/10 00:42:15;;;;;;;0.40;0.40;;;17.60;99.90;;;;;;5034227;28;20515;-60
2023/06/10 00:44:40;;;;;;;0.50;0.50;;;17.50;99.90;;;;;;5034360;28;20033;-59
2023/06/10 00:47:07;;;;;;;0.65;0.40;;;17.50;99.90;;;;;;5033556;28;20048;-59
2023/06/10 00:49:34;;;;;;;0.60;0.60;;;17.50;99.90;;;;;;5033840;28;20392;-59
2023/06/10 00:51:59;;;;;;;0.30;0.30;;;17.50;99.90;;;;;;5033651;28;20041;-58
2023/06/10 00:54:25;;;;;;;0.77;0.77;;;17.50;99.90;;;;;;5033722;28;20037;-59
2023/06/10 00:56:52;;;;;;;0.22;0.22;;;17.50;99.90;;;;;;5033653;28;20064;-59
2023/06/10 00:59:18;;;;;;;0.52;0.47;;;17.50;99.90;;;;;;5033874;28;20108;-59
2023/06/10 01:01:46;;;;;;;0.43;0.43;;;17.50;99.90;;;;;;5033871;28;20021;-59
2023/06/10 01:04:13;;;;;;;0.20;0.20;;;17.50;99.90;;;;;;5033708;28;20063;-59
2023/06/10 01:07:01;;;;;;;0.20;0.20;;;17.50;99.90;;;;;;5033524;28;20029;-59
2023/06/10 01:09:48;;;;;;;0.70;0.52;;;17.50;99.90;;;;;;5033765;28;20026;-59
2023/06/10 01:12:35;;;;;;;0.50;0.50;;;17.50;99.90;;;;;;5033487;28;20032;-59
2023/06/10 01:15:01;;;;;;;0.75;0.75;;;17.40;99.90;;;;;;5020951;28;20025;-60
2023/06/10 01:17:27;;;;;;;0.40;0.28;;;17.40;99.90;;;;;;5033504;28;20037;-60
2023/06/10 01:19:55;;;;;;;0.40;0.40;;;17.40;99.90;;;;;;5033529;28;20151;-60
2023/06/10 01:22:22;;;;;;;0.30;0.30;;;17.40;99.90;;;;;;5033555;28;20469;-60
2023/06/10 01:24:50;;;;;;;1.90;1.05;;;17.40;99.90;;;;;;5033351;28;20020;-60
2023/06/10 01:27:18;;;;;;;0.82;0.40;;;17.40;99.90;;;;;;5033309;28;20083;-60
2023/06/10 01:29:52;;;;;;;0.35;0.35;;;17.40;99.90;;;;;;5033115;28;20036;-59
2023/06/10 01:32:33;;;;;;;0.20;0.20;;;17.30;99.90;;;;;;5033678;28;20025;-59
2023/06/10 01:35:00;;;;;;;0.75;0.68;;;17.30;99.90;;;;;;5033112;28;20026;-59
2023/06/10 01:37:26;;;;;;;0.47;0.40;;;17.30;99.90;;;;;;5033236;28;20071;-60
2023/06/10 01:39:54;;;;;;;0.30;0.30;;;17.30;99.90;;;;;;5033005;28;20025;-59
2023/06/10 01:42:21;;;;;;;0.25;0.25;;;17.20;99.90;;;;;;5032919;28;20044;-60
2023/06/10 01:44:46;;;;;;;0.47;0.43;;;17.20;99.90;;;;;;5031892;28;20111;-58
2023/06/10 01:47:12;;;;;;;0.47;0.40;;;17.20;99.90;;;;;;5032189;28;20053;-57
2023/06/10 01:49:38;;;;;;;0.38;0.38;;;17.20;99.90;;;;;;5032793;28;20221;-59
2023/06/10 01:52:04;;;;;;;0.40;0.40;;;17.10;99.90;;;;;;5032187;28;20029;-61
2023/06/10 01:54:29;;;;;;;0.57;0.40;;;17.10;99.90;;;;;;5032759;28;20040;-59
2023/06/10 01:56:55;;;;;;;0.30;0.30;;;17.10;99.90;;;;;;5031814;28;20413;-59
2023/06/10 01:59:21;;;;;;;0.38;0.38;;;17.10;99.90;;;;;;5032683;28;20116;-58
2023/06/10 02:01:46;;;;;;;0.47;0.40;;;17.10;99.90;;;;;;5032786;28;20025;-59
2023/06/10 02:04:12;;;;;;;0.80;0.80;;;17.10;99.90;;;;;;5032273;28;20026;-59
2023/06/10 02:06:38;;;;;;;0.30;0.30;;;17.00;99.90;;;;;;5032655;28;20067;-58
2023/06/10 02:09:03;;;;;;;1.10;0.70;;;17.00;99.90;;;;;;5032340;28;20068;-57
2023/06/10 02:11:29;;;;;;;0.30;0.30;;;16.90;99.90;;;;;;5032432;28;20021;-57
2023/06/10 02:13:55;;;;;;;0.52;0.50;;;16.90;99.90;;;;;;5032409;28;20029;-61
2023/06/10 02:16:21;;;;;;;0.47;0.35;;;16.80;99.90;;;;;;5032181;28;20040;-58
2023/06/10 02:18:48;;;;;;;0.60;0.50;;;16.80;99.90;;;;;;5032408;28;20036;-60
2023/06/10 02:21:14;;;;;;;1.02;0.95;;;16.70;99.90;;;;;;5032402;28;20033;-59
2023/06/10 02:23:40;;;;;;;0.60;0.50;;;16.70;99.90;;;;;;5032140;28;20032;-57
2023/06/10 02:26:05;;;;;;;0.47;0.40;;;16.70;99.90;;;;;;5031706;28;20088;-60
2023/06/10 02:28:31;;;;;;;0.20;0.20;;;16.70;99.90;;;;;;5031747;28;20030;-61
2023/06/10 02:30:57;;;;;;;0.30;0.30;;;16.70;99.90;;;;;;5032085;28;20514;-60
2023/06/10 02:33:24;;;;;;;0.60;0.60;;;16.60;99.90;;;;;;5031771;28;20034;-60
2023/06/10 02:35:49;;;;;;;0.50;0.40;;;16.60;99.90;;;;;;5031840;28;20033;-60
2023/06/10 02:38:15;;;;;;;0.57;0.43;;;16.60;99.90;;;;;;5031819;28;20115;-57
2023/06/10 02:40:41;;;;;;;0.52;0.52;;;16.50;99.90;;;;;;5031910;28;20372;-60
2023/06/10 02:43:06;;;;;;;0.40;0.40;;;16.50;99.90;;;;;;5031359;28;20480;-60
2023/06/10 02:45:32;;;;;;;0.40;0.32;;;16.40;99.90;;;;;;5031751;28;20032;-60
2023/06/10 02:47:57;;;;;;;0.30;0.30;;;16.50;99.90;;;;;;5031690;28;20034;-60
2023/06/10 02:50:23;;;;;;;0.73;0.73;;;16.40;99.90;;;;;;5031875;28;20044;-60
2023/06/10 02:52:49;;;;;;;0.45;0.40;;;16.40;99.90;;;;;;5031829;28;20022;-59
2023/06/10 02:55:15;;;;;;;0.35;0.35;;;16.40;99.90;;;;;;5030434;28;20095;-60
2023/06/10 02:57:41;;;;;;;0.57;0.35;;;16.40;99.90;;;;;;5031451;28;20029;-60
2023/06/10 03:00:10;;;;;;;0.50;0.50;;;16.40;99.90;;;;;;5031130;28;20041;-59
2023/06/10 03:02:38;;;;;;;0.47;0.47;;;16.30;99.90;;;;;;5030615;28;20392;-60
2023/06/10 03:05:05;;;;;;;0.22;0.20;;;16.30;99.90;;;;;;5031350;28;20025;-59
2023/06/10 03:07:32;;;;;;;0.20;0.20;;;16.30;99.90;;;;;;5030342;28;20041;-60
2023/06/10 03:09:57;;;;;;;0.65;0.43;;;16.30;99.90;;;;;;5012535;28;20046;-61
2023/06/10 03:12:23;;;;;;;0.80;0.50;;;16.30;99.90;;;;;;5013678;28;20033;-61
2023/06/10 03:14:48;;;;;;;0.45;0.40;;;16.30;99.90;;;;;;5013694;28;20053;-60
2023/06/10 03:17:14;;;;;;;0.30;0.30;;;16.30;99.90;;;;;;5012329;28;20033;-60
2023/06/10 03:19:40;;;;;;;0.30;0.30;;;16.20;99.90;;;;;;5013228;28;20025;-59
2023/06/10 03:22:14;;;;;;;0.20;0.20;;;16.20;99.90;;;;;;5012441;28;20105;-61
2023/06/10 03:24:43;;;;;;;0.20;0.20;;;16.20;99.90;;;;;;5012991;28;20404;-60
2023/06/10 03:27:13;;;;;;;;;;;16.20;99.90;;;;;;5012906;28;20026;-59
2023/06/10 03:29:39;;;;;;;0.20;0.20;;;16.10;99.90;;;;;;5013102;28;19927;-60
2023/06/10 03:32:05;;;;;;;0.47;0.30;;;16.10;99.90;;;;;;5012363;28;20497;-60
2023/06/10 03:34:30;;;;;;;0.30;0.30;;;16.10;99.90;;;;;;5012139;28;20025;-60
2023/06/10 03:36:57;;;;;;;0.40;0.30;;;16.10;99.90;;;;;;5013079;28;20452;-60
2023/06/10 03:39:23;;;;;;;0.10;0.10;;;16.10;99.90;;;;;;5012137;28;20424;-60
2023/06/10 03:41:49;;;;;;;0.35;0.35;;;16.00;99.90;;;;;;5012829;28;20037;-60
2023/06/10 03:44:15;;;;;;;0.40;0.40;;;16.00;99.90;;;;;;5019657;28;20536;-59
2023/06/10 03:46:41;;;;;;;0.20;0.20;;;16.00;99.90;;;;;;5012739;28;20112;-59
2023/06/10 03:49:06;;;;;;;0.38;0.30;;;16.00;99.90;;;;;;5011747;28;20034;-59
2023/06/10 03:51:32;;;;;;;0.25;0.25;;;16.00;99.90;;;;;;5012093;28;20167;-58
2023/06/10 03:53:58;;;;;;;0.20;0.20;;;16.00;99.90;;;;;;5012514;28;20428;-58
2023/06/10 03:56:23;;;;;;;0.35;0.30;;;16.00;99.90;;;;;;5018046;28;20046;-57
2023/06/10 03:58:49;;;;;;;0.70;0.70;;;16.00;99.90;;;;;;5030474;28;20036;-58
2023/06/10 04:01:15;;;;;;;0.20;0.20;;;16.00;99.90;;;;;;5030148;28;20447;-62
2023/06/10 04:03:41;;;;;;;0.30;0.30;;;16.00;99.90;;;;;;5016939;28;20408;-58
2023/06/10 04:06:07;;;;;;;0.30;0.30;;;16.00;99.90;;;;;;5030240;28;20026;-58
2023/06/10 04:08:33;;;;;;;0.20;0.20;;;16.00;99.90;;;;;;5030241;28;20180;-58
2023/06/10 04:10:59;;;;;;;0.20;0.20;;;16.00;99.90;;;;;;5030518;28;20509;-58
2023/06/10 04:13:24;;;;;;;0.30;0.30;;;16.00;99.90;;;;;;5012333;28;20458;-59
2023/06/10 04:15:50;;;;;;;0.20;0.20;;;16.00;99.90;;;;;;5030392;28;20113;-59
2023/06/10 04:18:16;;;;;;;0.30;0.30;;;16.00;99.90;;;;;;5030343;28;20079;-58
2023/06/10 04:20:42;;;;;;;0.30;0.30;;;16.00;99.90;;;;;;5030089;28;20392;-58
2023/06/10 04:23:08;;;;;;;0.40;0.40;;;16.00;99.90;;;;;;5030445;28;20060;-62
2023/06/10 04:25:34;;;;;;;0.73;0.50;;;16.00;99.90;;;;;;5030596;28;20514;-58
2023/06/10 04:27:59;;;;;;;0.30;0.30;;;16.00;99.90;;;;;;5030261;28;20143;-58
2023/06/10 04:30:25;;;;;;;0.77;0.32;;;16.00;99.90;;;;;;5030260;28;20046;-59
2023/06/10 04:32:51;;;;;;;0.35;0.35;;;16.00;99.90;;;;;;5030243;28;20040;-58
2023/06/10 04:35:17;;;;;;;0.30;0.30;;;16.00;99.90;;;;;;5030541;28;20039;-59
2023/06/10 04:37:43;;;;;;;0.13;0.13;;;16.10;99.90;;;;;;5030377;28;20034;-60
2023/06/10 04:40:09;;;;;;;0.15;0.15;;;16.00;99.90;;;;;;5030405;28;20052;-59
2023/06/10 04:42:35;;;;;;;0.20;0.20;;;16.10;99.90;;;;;;5030032;28;20374;-59
2023/06/10 04:45:02;;;;;;;0.90;0.70;;;16.10;99.90;;;;;;5029368;28;20022;-59
2023/06/10 04:47:28;;;;;;;0.20;0.20;;;16.10;99.90;;;;;;5030108;28;20022;-59
2023/06/10 04:49:53;;;;;;;0.98;0.73;;;16.20;99.90;;;;;;5030310;28;20036;-59
2023/06/10 04:52:19;;;;;;;0.25;0.25;;;16.20;99.90;;;;;;5030496;28;20029;-59
2023/06/10 04:54:45;;;;;;;0.30;0.30;;;16.40;99.90;;;;;;5030201;28;20380;-60
2023/06/10 04:57:11;;;;;;;0.22;0.22;;;16.60;99.90;;;;;;5030164;28;20072;-61
2023/06/10 04:59:38;;;;;;;1.02;1.00;;;16.90;99.90;;;;;;5030225;28;20026;-58
2023/06/10 05:02:07;;;;;;;0.50;0.50;;;17.20;99.90;;;;;;5029886;28;20029;-60
2023/06/10 05:04:32;;;;;;;0.25;0.25;;;17.60;99.90;;;;;;5030095;28;20022;-60
2023/06/10 05:06:58;;;;;;;0.60;0.52;;;17.80;99.90;;;;;;5030091;28;20048;-59
2023/06/10 05:09:24;;;;;;;0.32;0.28;;;18.00;99.90;;;;;;5030218;28;20092;-59
2023/06/10 05:11:49;;;;;;;0.40;0.40;;;18.20;99.90;;;;;;5030219;28;20029;-59
2023/06/10 05:14:19;;;;;;;0.40;0.40;;;18.20;99.90;;;;;;5029507;28;20025;-59
2023/06/10 05:16:44;;;;;;;0.45;0.40;;;18.30;99.90;;;;;;5029909;28;20056;-58
2023/06/10 05:19:10;;;;;;;0.38;0.30;;;18.30;99.90;;;;;;5032043;28;20033;-58
2023/06/10 05:21:35;;;;;;;0.52;0.52;;;18.30;99.90;;;;;;5033681;28;20033;-57
2023/06/10 05:24:02;;;;;;;1.08;0.80;;;18.20;99.90;;;;;;5033352;28;20017;-59
2023/06/10 05:26:28;;;;;;;1.63;1.15;;;18.20;99.90;;;;;;5033565;28;20526;-58
2023/06/10 05:28:54;;;;;;;0.65;0.40;;;18.10;99.90;;;;;;5015777;28;20523;-59
2023/06/10 05:31:20;;;;;;;0.38;0.38;;;18.10;99.90;;;;;;5033313;28;20030;-58
2023/06/10 05:33:45;;;;;;;0.47;0.40;;;18.20;99.90;;;;;;5033394;28;20105;-58
2023/06/10 05:36:11;;;;;;;0.20;0.20;;;18.30;99.90;;;;;;5033453;28;20049;-59
2023/06/10 05:38:36;;;;;;;0.25;0.25;;;18.50;99.90;;;;;;5033315;28;20025;-58
2023/06/10 05:41:03;;;;;;;0.45;0.40;;;18.70;99.90;;;;;;5033231;28;20063;-57
2023/06/10 05:43:28;;;;;;;0.45;0.45;;;19.00;99.90;;;;;;5032965;28;20030;-59
2023/06/10 05:45:54;;;;;;;0.68;0.50;;;19.20;99.90;;;;;;5032826;28;20044;-57
2023/06/10 05:48:20;;;;;;;0.93;0.88;;;19.60;99.90;;;;;;5033284;28;20160;-59
2023/06/10 05:50:48;;;;;;;0.85;0.85;;;19.90;99.90;;;;;;5032660;28;20402;-60
2023/06/10 05:53:14;;;;;;;0.43;0.43;;;20.40;99.90;;;;;;5032987;28;20026;-58
2023/06/10 05:55:46;;;;;;;0.28;0.28;;;21.10;99.90;;;;;;5032792;28;20129;-57
2023/06/10 05:58:13;;;;;;;1.23;0.70;;;21.70;99.90;;;;;;5023186;28;20159;-60
2023/06/10 06:00:40;;;;;;;0.80;0.65;;;22.50;99.90;;;;;;5022886;28;20033;-58
2023/06/10 06:03:08;;;;;;;1.35;0.85;;;23.10;99.90;;;;;;5022127;28;20496;-58
2023/06/10 06:05:37;;;;;;;1.35;0.80;;;23.70;99.90;;;;;;5032247;28;20029;-61
2023/06/10 06:08:03;;;;;;;0.75;0.75;;;24.10;99.90;;;;;;5031435;28;20064;-58
2023/06/10 06:10:29;;;;;;;1.38;0.68;;;24.70;99.90;;;;;;5031009;28;20025;-56
2023/06/10 06:12:55;;;;;;;0.77;0.63;;;25.10;99.90;;;;;;5030400;28;20048;-59
2023/06/10 06:15:20;;;;;;;1.08;0.82;;;25.40;99.90;;;;;;5028961;28;20455;-57
2023/06/10 06:17:46;;;;;;;1.83;1.17;;;25.60;99.90;;;;;;5031754;28;20033;-58
2023/06/10 06:20:12;;;;;;;1.17;0.93;;;25.60;99.90;;;;;;5024469;28;20144;-57
2023/06/10 06:22:37;;;;;;;1.33;0.93;;;25.60;99.90;;;;;;5024412;28;20104;-56
2023/06/10 06:25:04;;;;;;;0.68;0.68;;;25.70;99.90;;;;;;5026541;28;20014;-56
2023/06/10 06:27:30;;;;;;;2.72;1.10;;;25.90;99.90;;;;;;5027572;28;20029;-57
2023/06/10 06:29:56;;;;;;;1.23;1.00;;;25.70;99.90;;;;;;5026182;28;20037;-58
2023/06/10 06:32:22;;;;;;;1.00;0.88;;;25.50;99.90;;;;;;5014069;28;20098;-58
2023/06/10 06:34:53;;;;;;;0.77;0.50;;;25.70;99.90;;;;;;5015591;28;20026;-58
2023/06/10 06:37:25;;;;;;;1.42;1.25;;;25.80;99.90;;;;;;5014092;28;20038;-59
2023/06/10 06:39:51;;;;;;;1.20;1.00;;;25.80;99.90;;;;;;5018498;28;20021;-59
2023/06/10 06:42:17;;;;;;;0.93;0.68;;;25.90;99.90;;;;;;5024225;28;20080;-59
2023/06/10 06:44:43;;;;;;;0.60;0.60;;;26.10;99.90;;;;;;5017867;28;20009;-60
2023/06/10 06:47:09;;;;;;;0.82;0.75;;;26.10;99.90;;;;;;5013971;28;20156;-60
2023/06/10 06:49:35;;;;;;;0.65;0.57;;;26.30;99.90;;;;;;5022684;28;20025;-59
2023/06/10 06:52:01;;;;;;;0.80;0.70;;;26.50;99.90;;;;;;5003719;28;20476;-60
2023/06/10 06:54:26;;;;;;;1.02;0.70;;;26.60;98.40;;;;;;5026019;28;20026;-59
2023/06/10 06:56:52;;;;;;;0.88;0.70;;;26.80;99.50;;;;;;5025423;28;20041;-59
2023/06/10 06:59:19;;;;;;;0.65;0.57;;;27.20;99.50;;;;;;5024967;28;20097;-59
2023/06/10 07:01:45;;;;;;;0.68;0.52;;;27.40;99.20;;;;;;5024029;28;20032;-60
2023/06/10 07:04:11;;;;;;;0.55;0.45;;;27.80;97.40;;;;;;5026750;28;20449;-60
2023/06/10 07:06:37;;;;;;;0.80;0.77;;;28.00;96.60;;;;;;5031869;28;20452;-60
2023/06/10 07:09:04;;;;;;;0.95;0.75;;;28.30;95.90;;;;;;5031093;28;20087;-62
2023/06/10 07:11:30;;;;;;;1.38;0.82;;;28.40;94.10;;;;;;5031480;28;20120;-60
2023/06/10 07:13:56;;;;;;;0.80;0.63;;;28.50;94.40;;;;;;5031299;28;20471;-58
2023/06/10 07:16:22;;;;;;;0.63;0.60;;;28.60;93.10;;;;;;5031492;28;20476;-59
2023/06/10 07:18:47;;;;;;;1.17;0.93;;;28.70;93.00;;;;;;5031260;28;20025;-59
2023/06/10 07:21:13;;;;;;;1.02;0.80;;;28.80;92.20;;;;;;5031091;28;20029;-59
2023/06/10 07:23:42;;;;;;;0.77;0.73;;;29.20;92.10;;;;;;5030302;28;20036;-56
2023/06/10 07:26:10;;;;;;;1.40;1.20;;;29.60;92.40;;;;;;5031012;28;20036;-61
2023/06/10 07:28:36;;;;;;;0.50;0.50;;;30.00;90.70;;;;;;5030592;28;20025;-59
2023/06/10 07:31:02;;;;;;;1.02;0.93;;;30.50;91.50;;;;;;5029846;28;20086;-59
2023/06/10 07:33:28;;;;;;;1.17;0.80;;;30.90;89.20;;;;;;5031226;28;20108;-58
2023/06/10 07:35:53;;;;;;;0.95;0.63;;;31.30;88.40;;;;;;5030890;28;20033;-56
2023/06/10 07:38:19;;;;;;;1.85;0.90;;;31.60;87.00;;;;;;5013338;28;20022;-59
2023/06/10 07:40:45;;;;;;;0.80;0.80;;;31.80;83.70;;;;;;5031264;28;20074;-59
2023/06/10 07:43:10;;;;;;;1.10;0.80;;;32.10;81.30;;;;;;5029648;28;20017;-61
2023/06/10 07:45:36;;;;;;;1.23;0.93;;;32.30;81.00;;;;;;5030845;28;20037;-60
2023/06/10 07:48:02;;;;;;;0.95;0.73;;;32.60;81.90;;;;;;5030749;28;20033;-59
2023/06/10 07:50:27;;;;;;;1.08;0.98;;;33.00;82.00;;;;;;5030918;28;20449;-59
2023/06/10 07:52:53;;;;;;;1.05;0.70;;;33.00;75.20;;;;;;5030616;28;20453;-59
2023/06/10 07:55:18;;;;;;;1.20;0.90;;;33.10;72.90;;;;;;5030537;28;20057;-59
2023/06/10 07:57:44;;;;;;;1.10;0.82;;;33.10;73.00;;;;;;5030407;28;20068;-59
2023/06/10 08:00:10;;;;;;;1.55;0.98;;;32.80;71.40;;;;;;5030758;28;20411;-61
2023/06/10 08:02:36;;;;;;;0.60;0.60;;;32.70;72.30;;;;;;5030832;28;20025;-60
2023/06/10 08:05:01;;;;;;;1.38;0.70;;;32.60;73.10;;;;;;5030616;28;20353;-59
2023/06/10 08:07:27;;;;;;;0.85;0.80;;;32.60;73.00;;;;;;5030452;28;20013;-59
2023/06/10 08:09:53;;;;;;;0.90;0.80;;;32.50;71.30;;;;;;5030953;28;20087;-59
2023/06/10 08:12:19;;;;;;;0.68;0.60;;;32.90;76.00;;;;;;5030522;28;20068;-58
2023/06/10 08:14:44;;;;;;;0.75;0.75;;;33.10;72.70;;;;;;5030711;28;20061;-59
2023/06/10 08:17:11;;;;;;;1.02;0.90;;;33.30;70.00;;;;;;5030395;28;20370;-60
2023/06/10 08:19:36;;;;;;;1.25;1.00;;;33.40;72.40;;;;;;5030570;28;20476;-59
2023/06/10 08:22:02;;;;;;;0.95;0.73;;;32.90;66.20;;;;;;5030945;28;20038;-59
2023/06/10 08:24:27;;;;;;;0.90;0.80;;;32.70;67.00;;;;;;5030869;28;20022;-59
2023/06/10 08:26:55;;;;;;;1.65;0.90;;;32.60;70.10;;;;;;5030157;28;20105;-59
2023/06/10 08:29:20;;;;;;;0.57;0.55;;;32.50;67.00;;;;;;5030285;28;20419;-57
2023/06/10 08:31:46;;;;;;;1.38;0.90;;;32.40;68.70;;;;;;5030541;28;20026;-58
2023/06/10 08:34:11;;;;;;;1.48;0.90;;;32.30;69.60;;;;;;5030200;28;20037;-58
2023/06/10 08:36:37;;;;;;;1.02;0.88;;;32.20;67.40;;;;;;5030342;28;20044;-58
2023/06/10 08:39:03;;;;;;;1.35;0.90;;;32.20;67.20;;;;;;5030383;28;20117;-59
2023/06/10 08:41:30;;;;;;;1.20;0.90;;;32.60;68.80;;;;;;5030379;28;20017;-57
2023/06/10 08:44:39;;;;;;;1.10;1.00;;;32.70;67.50;;;;;;5030032;28;20026;-58
2023/06/10 08:47:15;;;;;;;0.80;0.80;;;33.10;70.30;;;;;;5030204;28;20044;-60
2023/06/10 08:49:44;;;;;;;0.70;0.63;;;33.20;65.80;;;;;;5030055;28;20029;-59
2023/06/10 08:52:15;;;;;;;0.80;0.70;;;33.10;66.50;;;;;;5030290;28;20033;-60
2023/06/10 08:54:48;;;;;;;1.58;0.90;;;32.50;67.20;;;;;;5033096;28;20026;-57
2023/06/10 08:57:15;;;;;;;1.30;0.93;;;33.80;67.80;;;;;;5034068;28;20033;-58
2023/06/10 08:59:41;;;;;;;0.98;0.73;;;33.70;66.20;;;;;;5034240;28;20029;-57
2023/06/10 09:02:08;;;;;;;1.08;0.85;;;33.00;64.30;;;;;;5034010;28;20034;-60
2023/06/10 09:04:35;;;;;;;1.00;0.80;;;33.70;63.90;;;;;;5033952;28;20490;-59
2023/06/10 09:07:02;;;;;;;0.73;0.73;;;34.10;69.00;;;;;;5033984;28;20034;-59
2023/06/10 09:09:30;;;;;;;1.17;0.88;;;34.10;67.90;;;;;;5033804;28;20018;-60
2023/06/10 09:11:56;;;;;;;0.57;0.57;;;34.10;65.20;;;;;;5033923;28;20194;-60
2023/06/10 09:14:21;;;;;;;0.80;0.77;;;34.20;64.70;;;;;;5033056;28;20388;-59
2023/06/10 09:16:48;;;;;;;0.77;0.60;;;34.20;67.20;;;;;;5033636;28;20049;-59
2023/06/10 09:19:15;;;;;;;1.13;0.98;;;34.40;67.50;;;;;;5033660;28;20021;-59
2023/06/10 09:21:41;;;;;;;1.38;0.93;;;35.80;63.40;;;;;;5033754;28;20030;-61
2023/06/10 09:24:07;;;;;;;1.42;0.75;;;34.70;63.00;;;;;;5033463;28;20105;-59
2023/06/10 09:26:32;;;;;;;0.75;0.70;;;34.90;63.80;;;;;;5032273;28;20030;-59
2023/06/10 09:29:08;;;;;;;1.08;0.70;;;34.80;66.00;;;;;;5033494;28;20481;-59
2023/06/10 09:31:38;;;;;;;1.20;0.90;;;34.90;64.40;;;;;;5033708;28;20018;-57
2023/06/10 09:34:12;;;;;;;1.05;0.77;;;34.60;66.90;;;;;;5033396;28;20036;-59
2023/06/10 09:36:39;;;;;;;0.90;0.60;;;34.50;70.20;;;;;;5019910;28;20049;-58
2023/06/10 09:39:12;;;;;;;0.70;0.70;;;34.50;64.50;;;;;;5033392;28;20049;-58
2023/06/10 09:41:42;;;;;;;1.10;0.82;;;34.30;66.40;;;;;;5033134;28;20097;-60
2023/06/10 09:44:19;;;;;;;1.05;0.88;;;33.90;62.00;;;;;;5033101;28;20163;-59
2023/06/10 09:46:54;;;;;;;1.10;1.00;;;33.90;64.40;;;;;;5033220;28;20029;-59
2023/06/10 09:49:20;;;;;;;1.60;0.90;;;34.20;64.70;;;;;;5033061;28;20029;-58
2023/06/10 09:51:55;;;;;;;0.82;0.70;;;34.50;68.40;;;;;;5032955;28;20079;-60
2023/06/10 09:54:21;;;;;;;1.30;1.20;;;34.80;66.30;;;;;;5033194;28;20114;-58
2023/06/10 09:56:51;;;;;;;0.60;0.60;;;34.60;60.30;;;;;;5032665;28;20045;-59
2023/06/10 09:59:31;;;;;;;1.30;0.88;;;34.40;62.30;;;;;;5033032;28;20480;-58
2023/06/10 10:01:57;;;;;;;1.77;1.00;;;34.90;62.80;;;;;;5032782;28;20391;-58
2023/06/10 10:04:25;;;;;;;0.90;0.75;;;34.80;62.60;;;;;;5032055;28;20053;-59
2023/06/10 10:06:51;;;;;;;1.00;0.75;;;34.80;62.20;;;;;;5032761;28;20091;-59
2023/06/10 10:09:16;;;;;;;0.73;0.70;;;32.80;56.90;;;;;;5032596;28;20030;-58
2023/06/10 10:11:44;;;;;;;0.98;0.82;;;34.80;60.10;;;;;;5032586;28;20030;-60
2023/06/10 10:14:10;;;;;;;0.82;0.80;;;34.80;61.40;;;;;;5032133;28;20049;-58
2023/06/10 10:16:41;;;;;;;1.20;0.90;;;34.60;60.00;;;;;;5032198;28;20052;-58
2023/06/10 10:19:20;;;;;;;0.90;0.70;;;34.40;58.60;;;;;;5032003;28;20472;-59
2023/06/10 10:22:01;;;;;;;2.08;1.17;;;34.00;59.20;;;;;;5032556;28;20486;-59
2023/06/10 10:24:48;;;;;;;0.60;0.60;;;34.20;60.40;;;;;;5032411;28;20117;-59
2023/06/10 10:27:35;;;;;;;1.25;0.80;;;34.40;62.10;;;;;;5032308;28;20036;-59
2023/06/10 10:30:04;;;;;;;1.08;0.98;;;34.40;61.30;;;;;;5032329;28;20108;-59
2023/06/10 10:33:06;;;;;;;0.55;0.55;;;34.40;61.70;;;;;;5028755;28;20095;-58
2023/06/10 10:35:33;;;;;;;1.20;0.90;;;34.40;64.90;;;;;;5028153;28;20030;-57
2023/06/10 10:38:01;;;;;;;0.65;0.65;;;34.90;62.40;;;;;;5028377;28;20456;-59
2023/06/10 10:40:35;;;;;;;1.75;0.90;;;35.50;65.70;;;;;;5029901;28;20037;-57
2023/06/10 10:43:01;;;;;;;1.17;1.00;;;34.80;66.90;;;;;;5029994;28;20036;-57
2023/06/10 10:45:28;;;;;;;0.85;0.85;;;34.70;66.00;;;;;;5025901;28;20025;-57
2023/06/10 10:47:56;;;;;;;1.25;0.80;;;34.60;65.20;;;;;;5025881;28;20021;-58
2023/06/10 10:50:22;;;;;;;1.08;0.90;;;34.10;64.40;;;;;;5028451;28;20104;-58
2023/06/10 10:53:01;;;;;;;0.80;0.70;;;34.30;63.20;;;;;;5028315;28;20113;-59
2023/06/10 10:55:28;;;;;;;1.17;0.90;;;34.30;64.20;;;;;;5024171;28;20172;-59
2023/06/10 10:58:16;;;;;;;0.93;0.70;;;34.40;62.50;;;;;;5020046;28;20077;-57
2023/06/10 11:00:45;;;;;;;0.55;0.55;;;34.80;65.40;;;;;;5024999;28;20018;-59
2023/06/10 11:03:18;;;;;;;0.98;0.88;;;35.80;64.90;;;;;;5017948;28;20038;-57
2023/06/10 11:05:49;;;;;;;0.70;0.70;;;35.20;61.10;;;;;;5031551;28;20025;-57
2023/06/10 11:08:35;;;;;;;1.13;0.90;;;34.70;58.80;;;;;;5030036;28;20039;-57
2023/06/10 11:11:17;;;;;;;0.60;0.55;;;35.20;60.00;;;;;;5020724;28;20034;-59
2023/06/10 11:14:09;;;;;;;0.82;0.80;;;34.70;55.60;;;;;;5027381;28;20025;-59
2023/06/10 11:16:42;;;;;;;1.02;0.63;;;33.90;55.80;;;;;;5023259;28;20095;-60
2023/06/10 11:19:08;;;;;;;1.05;0.75;;;33.50;58.60;;;;;;5020638;28;20022;-58
2023/06/10 11:22:00;;;;;;;0.55;0.55;;;33.30;61.70;;;;;;5020366;28;20022;-58
2023/06/10 11:24:26;;;;;;;0.88;0.70;;;33.80;62.30;;;;;;5019510;28;20131;-59
2023/06/10 11:26:52;;;;;;;1.08;0.80;;;33.00;58.00;;;;;;5014430;28;20018;-57
2023/06/10 11:29:19;;;;;;;0.80;0.80;;;33.70;61.20;;;;;;5015442;28;20042;-57
2023/06/10 11:31:48;;;;;;;0.90;0.68;;;34.50;57.30;;;;;;5018771;28;20053;-59
2023/06/10 11:34:20;;;;;;;2.63;0.77;;;33.80;57.70;;;;;;5016941;28;20041;-59
2023/06/10 11:36:46;;;;;;;1.30;0.85;;;33.40;55.40;;;;;;5019665;28;20127;-59
2023/06/10 11:39:12;;;;;;;0.57;0.50;;;32.90;53.60;;;;;;5015946;28;20545;-59
2023/06/10 11:41:39;;;;;;;0.57;0.57;;;32.80;54.50;;;;;;5018360;28;20033;-58
2023/06/10 11:44:12;;;;;;;0.50;0.50;;;33.00;55.70;;;;;;5020139;28;20495;-56
2023/06/10 11:46:39;;;;;;;1.73;0.90;;;33.30;59.50;;;;;;5024623;28;20480;-59
2023/06/10 11:49:05;;;;;;;0.60;0.60;;;33.10;60.10;;;;;;5028604;28;20036;-57
2023/06/10 11:51:44;;;;;;;0.70;0.60;;;33.20;60.80;;;;;;5026157;28;20029;-60
2023/06/10 11:54:09;;;;;;;0.73;0.65;;;33.60;60.50;;;;;;5028680;28;20041;-58
2023/06/10 11:56:35;;;;;;;0.90;0.70;;;33.40;57.00;;;;;;5025731;28;20084;-60
2023/06/10 11:59:07;;;;;;;0.68;0.60;;;33.60;57.80;;;;;;5028087;28;20473;-58
2023/06/10 12:01:37;;;;;;;1.20;0.95;;;33.00;55.50;;;;;;5024836;28;20072;-58
2023/06/10 12:04:09;;;;;;;0.50;0.50;;;32.70;54.90;;;;;;5024656;28;20037;-58
2023/06/10 12:06:43;;;;;;;0.75;0.60;;;32.20;55.40;;;;;;5028197;28;20018;-56
2023/06/10 12:09:15;;;;;;;1.30;0.85;;;32.50;59.30;;;;;;5023793;28;20032;-55
2023/06/10 12:11:43;;;;;;;0.63;0.52;;;32.60;59.00;;;;;;5023591;28;20049;-60
2023/06/10 12:14:09;;;;;;;1.08;0.80;;;32.70;55.50;;;;;;5022767;28;20468;-56
2023/06/10 12:16:35;;;;;;;1.02;0.80;;;33.00;56.90;;;;;;5024967;28;20041;-57
2023/06/10 12:19:05;;;;;;;0.65;0.52;;;32.60;54.70;;;;;;5020802;28;20022;-56
2023/06/10 12:21:32;;;;;;;0.70;0.65;;;32.70;58.50;;;;;;5007697;28;20460;-58
2023/06/10 12:24:05;;;;;;;1.45;0.90;;;32.60;55.60;;;;;;5020110;28;20022;-55
2023/06/10 12:26:44;;;;;;;1.13;0.70;;;35.10;57.60;;;;;;5007688;28;20025;-60
2023/06/10 12:29:24;;;;;;;0.75;0.63;;;32.70;60.50;;;;;;5027847;28;20485;-57
2023/06/10 12:32:05;;;;;;;0.73;0.60;;;31.80;57.40;;;;;;5029632;28;20029;-60
2023/06/10 12:34:36;;;;;;;0.70;0.70;;;32.80;58.20;;;;;;5029217;28;20052;-56
2023/06/10 12:37:04;;;;;;;0.68;0.65;;;34.30;55.50;;;;;;5028644;28;20033;-57
2023/06/10 12:39:31;;;;;;;0.60;0.60;;;32.70;55.30;;;;;;5025491;28;20036;-57
2023/06/10 12:41:57;;;;;;;1.00;0.82;;;32.60;57.20;;;;;;5029403;28;20032;-56
2023/06/10 12:44:30;;;;;;;0.73;0.70;;;32.70;58.90;;;;;;5028493;28;20071;-55
2023/06/10 12:46:56;;;;;;;0.47;0.47;;;32.80;58.90;;;;;;5029278;28;20025;-56
2023/06/10 12:49:22;;;;;;;0.55;0.55;;;32.50;56.80;;;;;;5024830;28;20172;-59
2023/06/10 12:51:48;;;;;;;0.63;0.60;;;32.60;61.10;;;;;;5028437;28;20033;-58